Time;durP1;ratioP1;P1;durP2;ratioP2;P2;SDS_P1;SDS_P2;PMS_P1;PMS_P2;Temp;Humidity;BMP_temperature;BMP_pressure;BME280_temperature;BME280_humidity;BME280_pressure;Samples;Min_cycle;Max_cycle;Signal;HPM_P1;HPM_P2
2022/08/22 00:01:41;;;;;;;25.35;6.83;;;;;;;22.28;63.47;100131.75;1796198;79;21269;-46
2022/08/22 00:04:40;;;;;;;18.30;6.00;;;;;;;22.30;63.21;100135.04;1808596;78;21045;-46
2022/08/22 00:20:23;;;;;;;25.55;5.97;;;;;;;22.97;61.20;100129.60;1743451;78;22106;-46
2022/08/22 00:23:11;;;;;;;23.18;6.25;;;;;;;23.03;60.74;100131.42;1698323;82;21035;-47
2022/08/22 00:26:07;;;;;;;18.17;5.85;;;;;;;23.01;60.78;100138.87;1696964;82;21811;-48
2022/08/22 00:28:35;;;;;;;;;;;;;;;22.96;60.79;100135.99;1701986;82;21094;-47
2022/08/22 00:31:30;;;;;;;21.25;7.10;;;;;;;22.88;60.55;100134.88;1715363;82;20181;-48
2022/08/22 00:34:15;;;;;;;29.42;6.62;;;;;;;22.76;60.77;100124.81;1712074;82;21581;-47
2022/08/22 00:36:53;;;;;;;20.05;6.45;;;;;;;22.63;60.94;100124.83;1729182;81;21061;-47
2022/08/22 00:39:30;;;;;;;18.35;6.08;;;;;;;22.49;61.46;100125.33;1694036;82;21802;-49
2022/08/22 00:42:20;;;;;;;21.30;5.42;;;;;;;22.35;61.81;100125.05;1720977;81;20989;-47
2022/08/22 00:45:18;;;;;;;20.92;5.45;;;;;;;22.26;62.05;100135.13;1719455;81;21114;-47
2022/08/22 00:48:02;;;;;;;25.02;6.20;;;;;;;22.25;62.01;100137.48;1727776;81;21177;-48
2022/08/22 00:51:04;;;;;;;28.62;6.70;;;;;;;22.24;62.01;100141.18;1723980;82;21096;-48
2022/08/22 00:53:52;;;;;;;14.73;5.25;;;;;;;22.20;62.24;100135.94;1720335;81;22222;-52
2022/08/22 00:56:29;;;;;;;23.22;6.45;;;;;;;22.16;62.50;100146.77;1720729;81;21568;-47
2022/08/22 00:59:46;;;;;;;18.10;6.20;;;;;;;22.08;62.70;100148.59;1714808;80;21027;-47
2022/08/22 01:02:50;;;;;;;25.27;6.00;;;;;;;21.98;62.81;100145.48;1635079;83;21591;-47
2022/08/22 01:05:23;;;;;;;20.23;5.42;;;;;;;21.88;62.89;100143.20;1670288;82;21090;-48
2022/08/22 01:07:58;;;;;;;20.20;5.50;;;;;;;21.82;62.86;100140.02;1712681;82;21225;-48
2022/08/22 01:10:50;;;;;;;23.98;5.75;;;;;;;21.85;62.91;100146.80;1707126;82;21506;-49
2022/08/22 01:13:29;;;;;;;25.25;6.75;;;;;;;21.86;62.92;100149.80;1694286;82;21055;-47
2022/08/22 01:16:13;;;;;;;15.63;5.15;;;;;;;21.84;62.93;100145.98;1719768;81;21564;-48
2022/08/22 01:18:55;;;;;;;19.32;6.10;;;;;;;21.81;63.13;100145.57;1720767;81;21530;-47
2022/08/22 01:21:47;;;;;;;16.23;6.17;;;;;;;21.78;63.22;100149.46;1699671;83;21994;-48
2022/08/22 01:25:17;;;;;;;19.10;5.62;;;;;;;21.75;63.13;100151.72;1705525;81;21111;-47
2022/08/22 01:28:08;;;;;;;17.20;5.85;;;;;;;21.69;62.99;100144.81;1689514;82;21515;-46
2022/08/22 01:31:12;;;;;;;19.30;4.85;;;;;;;21.59;63.20;100143.03;1702891;83;21026;-47
2022/08/22 01:34:20;;;;;;;19.27;6.10;;;;;;;21.52;63.53;100146.20;1709183;82;21077;-49
2022/08/22 01:37:11;;;;;;;22.07;6.05;;;;;;;21.55;63.48;100149.80;1721129;82;22133;-49
2022/08/22 01:39:55;;;;;;;22.87;6.33;;;;;;;21.55;63.64;100151.66;1694812;82;21542;-48
2022/08/22 01:42:49;;;;;;;18.87;5.87;;;;;;;21.56;63.63;100156.81;1703840;81;21069;-48
2022/08/22 01:45:33;;;;;;;20.90;5.20;;;;;;;21.52;63.66;100159.06;1686446;82;21077;-49
2022/08/22 01:48:23;;;;;;;19.82;5.78;;;;;;;21.51;63.59;100156.07;1692200;82;21145;-48
2022/08/22 01:50:59;;;;;;;17.48;5.40;;;;;;;21.49;63.68;100156.78;1642905;86;21183;-49
2022/08/22 01:53:49;;;;;;;22.60;5.78;;;;;;;21.52;63.84;100159.59;1693107;82;21117;-47
2022/08/22 01:56:21;;;;;;;14.73;5.95;;;;;;;21.57;64.06;100150.94;1698044;82;21590;-47
2022/08/22 01:59:07;;;;;;;16.52;5.90;;;;;;;21.62;64.10;100153.34;1700898;81;21049;-47
2022/08/22 02:02:17;;;;;;;26.62;5.72;;;;;;;21.60;64.02;100147.86;1714022;81;21675;-48
2022/08/22 02:05:13;;;;;;;17.20;4.97;;;;;;;21.58;63.87;100161.97;1705752;81;21067;-47
2022/08/22 02:08:01;;;;;;;20.90;4.97;;;;;;;21.52;63.75;100159.06;1709549;81;21161;-46
2022/08/22 02:10:55;;;;;;;16.27;5.53;;;;;;;21.45;63.53;100162.70;1666155;83;21123;-48
2022/08/22 02:13:53;;;;;;;18.45;5.47;;;;;;;21.38;63.46;100157.31;1654964;83;21083;-48
2022/08/22 02:16:38;;;;;;;15.50;4.83;;;;;;;21.34;63.10;100162.25;1696794;81;21064;-49
2022/08/22 02:19:16;;;;;;;17.55;5.00;;;;;;;21.31;62.88;100161.83;1709458;81;21245;-47
2022/08/22 02:21:58;;;;;;;18.07;5.10;;;;;;;21.29;63.10;100165.22;1700811;82;21082;-48
2022/08/22 02:24:48;;;;;;;22.52;5.58;;;;;;;21.26;62.86;100161.59;1688623;81;21054;-48
2022/08/22 02:27:47;;;;;;;13.83;4.65;;;;;;;21.20;62.88;100164.56;1701847;82;21080;-47
2022/08/22 02:30:18;;;;;;;24.40;5.40;;;;;;;21.14;63.07;100174.19;1708910;81;21086;-63
2022/08/22 02:33:02;;;;;;;14.65;5.28;;;;;;;21.11;63.14;100168.41;1707393;82;21313;-64
2022/08/22 02:35:39;;;;;;;16.23;4.55;;;;;;;21.05;63.10;100167.88;1720216;81;21072;-64
2022/08/22 02:38:35;;;;;;;14.85;3.45;;;;;;;21.02;63.26;100175.77;1694537;83;21102;-64
2022/08/22 02:41:32;;;;;;;16.25;4.95;;;;;;;21.06;63.21;100170.84;1703116;82;21142;-66
2022/08/22 02:44:21;;;;;;;19.65;4.67;;;;;;;21.06;62.89;100175.68;1703452;82;21082;-65
2022/08/22 02:46:57;;;;;;;24.35;5.58;;;;;;;21.01;62.99;100175.97;1690460;83;21290;-63
2022/08/22 02:49:49;;;;;;;12.18;4.78;;;;;;;20.99;62.98;100176.16;1695096;82;21056;-64
2022/08/22 02:52:50;;;;;;;18.62;5.10;;;;;;;20.98;62.70;100179.87;1711059;81;21107;-64
2022/08/22 02:55:43;;;;;;;18.37;4.47;;;;;;;20.95;62.82;100186.95;1716605;81;21644;-64
2022/08/22 02:58:31;;;;;;;12.73;4.03;;;;;;;20.91;62.80;100179.83;1715848;81;21073;-64
2022/08/22 03:01:15;;;;;;;29.23;4.97;;;;;;;20.90;62.55;100183.52;1698341;82;21644;-65
2022/08/22 03:03:42;;;;;;;15.48;4.87;;;;;;;20.90;62.62;100187.52;1710324;81;21069;-64
2022/08/22 03:06:37;;;;;;;17.50;5.00;;;;;;;20.91;62.44;100188.34;1715578;81;21505;-64
2022/08/22 03:09:18;;;;;;;14.93;5.33;;;;;;;20.90;62.74;100196.06;1717839;81;21073;-64
2022/08/22 03:11:50;;;;;;;14.78;5.20;;;;;;;20.86;63.08;100200.95;1719744;82;22577;-64
2022/08/22 03:14:28;;;;;;;17.82;4.40;;;;;;;20.83;63.61;100196.02;1705203;81;21215;-64
2022/08/22 03:17:18;;;;;;;14.18;4.80;;;;;;;20.77;63.81;100192.25;1696336;82;21074;-64
2022/08/22 03:20:06;;;;;;;19.02;5.33;;;;;;;20.70;63.98;100198.59;1718047;81;21525;-64
2022/08/22 03:22:44;;;;;;;16.93;4.53;;;;;;;20.68;64.25;100199.27;1709129;81;21667;-64
2022/08/22 03:25:31;;;;;;;21.80;5.58;;;;;;;20.72;64.17;100199.22;1701704;81;21351;-63
2022/08/22 03:28:03;;;;;;;19.85;5.42;;;;;;;20.76;64.34;100196.45;1714044;81;21853;-63
2022/08/22 03:30:40;;;;;;;16.87;5.95;;;;;;;20.75;64.44;100202.33;1717670;81;21059;-64
2022/08/22 03:33:25;;;;;;;21.55;5.00;;;;;;;20.77;64.37;100197.61;1713707;82;21039;-64
2022/08/22 03:36:18;;;;;;;16.32;4.85;;;;;;;20.77;64.47;100198.12;1712593;81;22674;-64
2022/08/22 03:39:11;;;;;;;13.32;5.08;;;;;;;20.76;64.03;100196.45;1700105;82;21141;-64
2022/08/22 03:42:09;;;;;;;14.20;4.72;;;;;;;20.73;63.64;100204.89;1713487;83;21098;-63
2022/08/22 03:44:55;;;;;;;12.65;5.08;;;;;;;20.69;63.83;100212.97;1664426;83;21109;-63
2022/08/22 03:47:37;;;;;;;18.02;4.78;;;;;;;20.73;64.01;100215.06;1722951;82;21060;-64
2022/08/22 03:50:29;;;;;;;22.48;5.58;;;;;;;20.80;63.55;100223.14;1721255;81;21003;-64
2022/08/22 03:53:34;;;;;;;18.95;5.37;;;;;;;20.81;63.58;100223.44;1721599;83;21585;-64
2022/08/22 03:56:38;;;;;;;15.78;4.72;;;;;;;20.80;63.26;100225.81;1680622;84;21089;-64
2022/08/22 03:59:37;;;;;;;14.53;5.22;;;;;;;20.77;63.20;100220.33;1668051;83;21032;-63
2022/08/22 04:02:34;;;;;;;18.92;4.60;;;;;;;20.75;63.27;100232.26;1687671;81;21130;-65
2022/08/22 04:05:19;;;;;;;;;;;;;;;20.70;63.50;100236.02;1712129;82;21070;-65
2022/08/22 04:08:08;;;;;;;13.98;4.28;;;;;;;20.71;63.48;100237.66;1698149;81;20215;-64
2022/08/22 04:11:08;;;;;;;21.10;5.10;;;;;;;20.79;63.29;100238.86;1736132;81;21466;-64
2022/08/22 04:13:56;;;;;;;15.53;4.87;;;;;;;20.84;63.15;100237.77;1701216;81;21063;-64
2022/08/22 04:17:10;;;;;;;19.25;5.55;;;;;;;20.85;62.84;100239.43;1698602;82;21595;-64
2022/08/22 04:20:11;;;;;;;18.52;4.92;;;;;;;20.85;62.83;100246.12;1700427;82;21097;-65
2022/08/22 04:23:12;;;;;;;13.00;5.30;;;;;;;20.86;62.38;100246.41;1712775;82;21079;-64
2022/08/22 04:25:56;;;;;;;15.63;5.25;;;;;;;20.84;62.46;100248.98;1719445;82;21914;-65
2022/08/22 04:28:40;;;;;;;12.88;4.62;;;;;;;20.82;62.38;100251.84;1701308;83;21066;-65
2022/08/22 04:31:13;;;;;;;19.45;4.45;;;;;;;20.81;62.35;100248.84;1696810;82;21105;-65
2022/08/22 04:33:53;;;;;;;19.52;4.80;;;;;;;20.89;62.24;100258.59;1715908;82;21125;-65
2022/08/22 04:36:35;;;;;;;19.95;4.92;;;;;;;20.96;62.03;100253.63;1693413;83;21085;-65
2022/08/22 04:39:30;;;;;;;16.10;5.28;;;;;;;21.01;61.63;100253.53;1668558;82;21202;-64
2022/08/22 04:42:14;;;;;;;22.67;5.08;;;;;;;21.05;61.22;100254.30;1685991;81;21527;-66
2022/08/22 04:44:56;;;;;;;13.48;4.53;;;;;;;21.08;61.11;100254.40;1725910;81;21023;-66
2022/08/22 04:47:35;;;;;;;13.55;5.17;;;;;;;21.07;60.59;100257.59;1703037;82;21090;-65
2022/08/22 04:50:22;;;;;;;13.62;4.78;;;;;;;21.04;60.19;100243.78;1719950;81;21070;-65
2022/08/22 04:53:45;;;;;;;15.08;5.20;;;;;;;20.97;60.02;100248.56;1718543;81;21142;-64
2022/08/22 04:56:40;;;;;;;16.87;6.42;;;;;;;20.89;59.95;100246.55;1727973;81;21157;-64
2022/08/22 04:59:15;;;;;;;19.07;6.37;;;;;;;20.82;59.95;100254.52;1713253;81;21165;-66
2022/08/22 05:01:54;;;;;;;17.65;6.12;;;;;;;20.83;60.13;100256.19;1711999;81;21008;-65
2022/08/22 05:04:37;;;;;;;14.83;5.22;;;;;;;20.89;59.51;100259.92;1706367;82;21086;-65
2022/08/22 05:07:15;;;;;;;19.55;5.80;;;;;;;20.90;59.31;100253.56;1696839;82;21243;-65
2022/08/22 05:09:46;;;;;;;11.68;4.12;;;;;;;20.90;59.24;100257.58;1657896;84;21159;-66
2022/08/22 05:12:16;;;;;;;14.93;5.35;;;;;;;20.91;59.03;100259.21;1691095;82;21082;-66
2022/08/22 05:14:53;;;;;;;10.50;3.60;;;;;;;20.93;58.95;100253.16;1697596;82;21050;-65
2022/08/22 05:17:24;;;;;;;20.60;4.55;;;;;;;20.94;58.72;100265.00;1692676;82;21735;-66
2022/08/22 05:19:54;;;;;;;16.75;4.15;;;;;;;20.94;58.93;100261.50;1705135;81;21503;-66
2022/08/22 05:22:27;;;;;;;13.53;4.12;;;;;;;20.97;59.15;100268.63;1687805;84;21141;-66
2022/08/22 05:25:00;;;;;;;12.43;3.67;;;;;;;21.01;59.18;100267.72;1693200;82;21716;-66
2022/08/22 05:27:30;;;;;;;19.70;4.33;;;;;;;21.02;58.87;100272.06;1688150;84;21113;-66
2022/08/22 05:30:07;;;;;;;11.83;3.87;;;;;;;21.04;59.11;100271.88;1702866;81;21085;-66
2022/08/22 05:33:06;;;;;;;14.28;3.90;;;;;;;21.10;59.45;100282.62;1667671;85;21875;-66
2022/08/22 05:35:38;;;;;;;12.80;3.20;;;;;;;21.26;59.10;100277.47;1700198;82;21507;-66
2022/08/22 05:38:08;;;;;;;11.48;3.35;;;;;;;21.42;58.26;100281.71;1701001;82;21004;-64
2022/08/22 05:40:36;;;;;;;19.62;4.22;;;;;;;21.50;57.58;100278.06;1696286;82;21111;-64
2022/08/22 05:43:02;;;;;;;13.78;3.77;;;;;;;21.56;57.29;100274.61;1658869;84;21087;-65
2022/08/22 05:45:29;;;;;;;14.53;3.98;;;;;;;21.63;56.83;100278.14;1721747;81;22122;-64
2022/08/22 05:48:18;;;;;;;15.80;4.53;;;;;;;21.69;56.87;100274.67;1731546;82;21089;-64
2022/08/22 05:50:55;;;;;;;14.18;3.98;;;;;;;21.77;56.27;100276.87;1725801;81;21114;-65
2022/08/22 05:53:35;;;;;;;19.25;3.50;;;;;;;21.82;56.49;100272.59;1706605;82;21129;-64
2022/08/22 05:56:06;;;;;;;13.85;3.70;;;;;;;21.86;55.60;100270.33;1721566;81;21109;-64
2022/08/22 05:58:47;;;;;;;14.00;3.98;;;;;;;21.88;54.30;100272.29;1741522;81;21185;-65
2022/08/22 06:01:45;;;;;;;17.37;4.58;;;;;;;21.85;54.57;100269.48;1724435;81;21137;-65
2022/08/22 06:04:42;;;;;;;13.85;4.15;;;;;;;21.85;54.57;100265.98;1710359;81;21156;-64
2022/08/22 06:07:17;;;;;;;34.92;4.45;;;;;;;21.85;54.67;100267.33;1725966;81;21063;-64
2022/08/22 06:09:49;;;;;;;12.55;3.70;;;;;;;21.88;55.26;100269.09;1711677;82;21046;-64
2022/08/22 06:12:23;;;;;;;9.78;3.62;;;;;;;21.93;55.38;100269.84;1715389;82;21952;-65
2022/08/22 06:15:07;;;;;;;16.60;3.80;;;;;;;22.00;55.34;100265.32;1701652;82;21054;-63
2022/08/22 06:17:40;;;;;;;16.42;4.67;;;;;;;22.11;54.90;100268.44;1682491;84;21082;-64
2022/08/22 06:20:07;;;;;;;12.00;3.62;;;;;;;22.16;54.51;100270.03;1723323;81;21135;-65
2022/08/22 06:22:39;;;;;;;11.68;4.05;;;;;;;22.22;54.38;100267.86;1724644;81;21138;-64
2022/08/22 06:25:13;;;;;;;15.55;5.03;;;;;;;22.28;54.22;100260.39;1723576;81;21289;-64
2022/08/22 06:27:40;;;;;;;12.18;3.67;;;;;;;22.30;54.08;100256.98;1710714;81;21113;-65
2022/08/22 06:30:09;;;;;;;19.90;4.55;;;;;;;22.35;54.03;100265.77;1710536;81;21009;-64
2022/08/22 06:32:44;;;;;;;11.53;3.95;;;;;;;22.38;54.28;100270.73;1703951;81;21630;-65
2022/08/22 06:35:24;;;;;;;12.33;3.67;;;;;;;22.40;54.15;100269.48;1681214;83;21101;-64
2022/08/22 06:37:51;;;;;;;14.35;3.60;;;;;;;22.45;54.35;100260.84;1712666;82;21151;-63
2022/08/22 06:40:17;;;;;;;16.42;3.85;;;;;;;22.51;53.99;100261.86;1708739;82;21045;-62
2022/08/22 06:42:47;;;;;;;12.78;3.15;;;;;;;22.59;54.59;100260.33;1710625;82;21482;-63
2022/08/22 06:45:25;;;;;;;18.52;3.92;;;;;;;22.65;54.58;100259.52;1694842;82;21109;-64
2022/08/22 06:48:09;;;;;;;11.43;3.67;;;;;;;22.72;54.15;100256.84;1714068;81;21106;-63
2022/08/22 06:50:41;;;;;;;15.78;3.90;;;;;;;22.78;54.01;100258.19;1701034;82;21109;-63
2022/08/22 06:53:15;;;;;;;12.90;3.37;;;;;;;22.86;53.69;100257.66;1705101;82;21584;-63
2022/08/22 06:55:55;;;;;;;15.78;3.75;;;;;;;22.95;53.58;100257.78;1672007;84;21094;-63
2022/08/22 06:58:40;;;;;;;19.95;4.78;;;;;;;23.01;53.40;100255.58;1706328;82;21073;-62
2022/08/22 07:01:11;;;;;;;16.15;4.12;;;;;;;23.06;53.32;100242.40;1681141;83;21089;-62
2022/08/22 07:03:46;;;;;;;13.43;3.92;;;;;;;23.11;53.04;100244.47;1698613;81;22249;-63
2022/08/22 07:06:24;;;;;;;16.73;4.55;;;;;;;23.13;52.54;100241.89;1706552;81;21128;-64
2022/08/22 07:08:52;;;;;;;11.12;3.50;;;;;;;23.16;52.90;100242.80;1698382;82;21059;-62
2022/08/22 07:11:29;;;;;;;11.08;3.20;;;;;;;23.26;52.76;100250.42;1711434;82;21083;-63
2022/08/22 07:14:10;;;;;;;9.05;3.12;;;;;;;23.33;51.80;100245.88;1731621;81;21038;-62
2022/08/22 07:16:46;;;;;;;15.72;3.58;;;;;;;23.37;51.12;100248.97;1726792;81;21183;-63
2022/08/22 07:19:35;;;;;;;11.88;3.45;;;;;;;23.43;51.78;100247.29;1720673;81;21098;-63
2022/08/22 07:22:16;;;;;;;13.03;3.65;;;;;;;23.52;51.85;100241.48;1695889;82;21069;-63
2022/08/22 07:24:47;;;;;;;16.52;3.85;;;;;;;23.62;51.74;100233.48;1713859;82;21081;-64
2022/08/22 07:27:39;;;;;;;10.43;3.15;;;;;;;23.73;50.70;100242.23;1701851;82;21117;-63
2022/08/22 07:30:11;;;;;;;11.22;3.22;;;;;;;23.80;50.37;100244.36;1695502;82;21233;-63
2022/08/22 07:33:02;;;;;;;12.35;3.70;;;;;;;23.86;49.50;100240.86;1689662;82;21051;-63
2022/08/22 07:35:35;;;;;;;17.87;3.58;;;;;;;23.90;49.13;100233.19;1695077;82;22072;-62
2022/08/22 07:38:25;;;;;;;13.83;3.05;;;;;;;23.95;49.41;100232.03;1691299;82;21082;-64
2022/08/22 07:41:06;;;;;;;13.75;3.33;;;;;;;24.03;50.13;100238.50;1704204;81;21019;-65
2022/08/22 07:43:44;;;;;;;10.88;3.08;;;;;;;24.10;49.94;100237.13;1697323;82;21234;-63
2022/08/22 07:46:31;;;;;;;12.53;3.50;;;;;;;24.16;50.28;100234.08;1695800;82;21489;-63
2022/08/22 07:49:21;;;;;;;15.48;4.33;;;;;;;24.21;49.29;100231.56;1685613;82;21087;-64
2022/08/22 07:51:59;;;;;;;14.30;3.25;;;;;;;24.22;48.59;100231.34;1724755;81;21066;-64
2022/08/22 07:54:46;;;;;;;13.70;2.95;;;;;;;24.26;48.36;100231.77;1717058;81;21109;-64
2022/08/22 07:57:17;;;;;;;17.87;3.58;;;;;;;24.33;48.74;100232.54;1713625;81;21331;-63
2022/08/22 07:59:50;;;;;;;13.90;3.70;;;;;;;24.40;49.39;100230.63;1666475;84;21098;-63
2022/08/22 08:02:17;;;;;;;10.78;3.83;;;;;;;24.46;49.38;100218.16;1662358;84;21138;-62
2022/08/22 08:04:44;;;;;;;12.03;3.37;;;;;;;24.51;48.13;100221.54;1693994;81;21144;-63
2022/08/22 08:07:13;;;;;;;9.73;3.52;;;;;;;24.53;47.88;100222.14;1695466;82;21074;-64
2022/08/22 08:09:45;;;;;;;13.05;3.67;;;;;;;24.58;48.02;100225.03;1698513;82;21178;-63
2022/08/22 08:12:11;;;;;;;12.25;3.25;;;;;;;24.65;47.87;100223.95;1684713;82;21471;-63
2022/08/22 08:14:40;;;;;;;12.20;3.80;;;;;;;24.75;48.14;100223.45;1698993;82;21581;-64
2022/08/22 08:17:25;;;;;;;12.75;4.25;;;;;;;24.86;47.73;100229.97;1696661;82;21521;-63
2022/08/22 08:19:52;;;;;;;16.77;4.28;;;;;;;24.98;47.80;100225.53;1708683;82;21029;-62
2022/08/22 08:22:22;;;;;;;18.48;4.30;;;;;;;25.08;47.28;100220.14;1701441;82;21224;-63
2022/08/22 08:24:49;;;;;;;11.45;3.27;;;;;;;25.10;46.99;100216.70;1688162;82;21114;-63
2022/08/22 08:30:16;;;;;;;13.98;3.10;;;;;;;25.16;46.38;100218.51;1692931;82;21551;-64
2022/08/22 08:32:48;;;;;;;14.73;3.30;;;;;;;25.17;46.71;100213.44;1663304;84;21141;-62
2022/08/22 08:35:27;;;;;;;12.80;3.75;;;;;;;25.22;46.54;100220.32;1693381;82;22254;-63
2022/08/22 08:38:09;;;;;;;9.15;3.00;;;;;;;25.30;47.42;100224.60;1714541;82;21057;-65
2022/08/22 08:41:30;;;;;;;11.30;3.47;;;;;;;25.38;47.75;100222.42;1720942;81;21109;-64
2022/08/22 08:44:17;;;;;;;15.38;3.10;;;;;;;25.50;47.05;100227.07;1658079;85;21557;-64
2022/08/22 08:47:15;;;;;;;14.10;3.50;;;;;;;25.55;45.47;100225.37;1687126;82;21759;-63
2022/08/22 08:49:50;;;;;;;14.63;3.62;;;;;;;25.63;44.17;100224.22;1691890;82;21133;-63
2022/08/22 08:52:52;;;;;;;17.35;3.70;;;;;;;25.70;43.61;100222.25;1723190;81;21082;-62
2022/08/22 08:55:58;;;;;;;15.72;3.83;;;;;;;25.74;42.42;100219.42;1713648;82;21077;-63
2022/08/22 08:58:39;;;;;;;14.60;3.75;;;;;;;25.78;43.18;100225.17;1713737;82;21578;-63
2022/08/22 09:01:32;;;;;;;19.12;4.12;;;;;;;25.88;43.06;100213.33;1718737;81;21061;-63
2022/08/22 09:04:31;;;;;;;14.47;3.10;;;;;;;25.95;42.56;100213.27;1699378;84;21345;-62
2022/08/22 09:07:17;;;;;;;17.10;3.83;;;;;;;25.98;42.68;100211.47;1704841;81;21529;-63
2022/08/22 09:10:11;;;;;;;18.60;3.45;;;;;;;26.07;43.21;100211.95;1692997;82;21499;-63
2022/08/22 09:13:18;;;;;;;24.07;3.62;;;;;;;26.11;41.70;100205.07;1707126;81;21566;-63
2022/08/22 09:16:08;;;;;;;11.45;3.22;;;;;;;26.15;41.79;100203.55;1663655;83;21103;-63
2022/08/22 09:19:11;;;;;;;14.87;4.53;;;;;;;26.23;42.82;100202.41;1672733;83;21988;-62
2022/08/22 09:22:13;;;;;;;23.42;4.22;;;;;;;26.31;41.86;100198.84;1669874;83;21137;-64
2022/08/22 09:24:48;;;;;;;20.02;4.05;;;;;;;26.36;40.84;100204.06;1681783;82;21114;-64
2022/08/22 09:27:35;;;;;;;24.72;3.55;;;;;;;26.38;41.24;100204.14;1666460;83;21190;-62
2022/08/22 09:30:07;;;;;;;14.43;3.40;;;;;;;26.43;40.99;100202.91;1669106;83;21070;-63
2022/08/22 09:33:00;;;;;;;17.67;4.03;;;;;;;26.50;41.66;100200.11;1676351;83;21125;-62
2022/08/22 09:35:59;;;;;;;23.75;3.87;;;;;;;26.60;40.63;100200.89;1673564;82;21118;-63
2022/08/22 09:38:44;;;;;;;27.10;3.85;;;;;;;26.66;39.45;100204.02;1699564;82;21049;-62
2022/08/22 09:41:24;;;;;;;26.52;5.12;;;;;;;26.66;39.97;100201.31;1683737;83;21093;-62
2022/08/22 09:44:11;;;;;;;22.37;4.10;;;;;;;26.69;40.91;100200.85;1656700;84;21104;-63
2022/08/22 09:46:47;;;;;;;15.32;3.92;;;;;;;26.75;40.79;100201.78;1693066;82;22028;-63
2022/08/22 09:49:43;;;;;;;27.17;5.65;;;;;;;26.77;40.93;100201.05;1673607;83;21118;-63
2022/08/22 09:52:24;;;;;;;15.88;3.58;;;;;;;26.81;42.19;100198.97;1701395;83;21070;-63
2022/08/22 09:54:58;;;;;;;20.05;4.03;;;;;;;26.88;41.28;100189.41;1696584;82;21779;-63
2022/08/22 09:57:55;;;;;;;18.90;3.87;;;;;;;26.99;41.34;100193.17;1699731;82;21337;-63
2022/08/22 10:00:35;;;;;;;17.67;5.05;;;;;;;27.10;41.62;100195.55;1705586;81;21293;-63
2022/08/22 10:03:23;;;;;;;22.50;4.62;;;;;;;27.22;41.32;100198.53;1709726;81;21613;-64
2022/08/22 10:05:58;;;;;;;21.02;4.62;;;;;;;27.34;41.31;100190.44;1682593;83;21060;-62
2022/08/22 10:08:48;;;;;;;21.48;4.47;;;;;;;27.45;40.95;100197.40;1703380;81;21147;-64
2022/08/22 10:11:33;;;;;;;22.30;4.95;;;;;;;27.53;40.41;100191.62;1700475;81;21031;-62
2022/08/22 10:14:10;;;;;;;24.87;5.15;;;;;;;27.62;40.12;100190.17;1712392;81;21235;-64
2022/08/22 10:16:54;;;;;;;19.32;4.80;;;;;;;27.68;40.20;100196.52;1695859;82;21162;-63
2022/08/22 10:19:35;;;;;;;29.30;5.10;;;;;;;27.76;40.68;100190.72;1680219;82;21031;-63
2022/08/22 10:22:34;;;;;;;25.37;4.95;;;;;;;27.86;40.66;100190.10;1689530;82;21048;-64
2022/08/22 10:25:31;;;;;;;23.50;5.78;;;;;;;27.95;40.43;100186.77;1704227;83;21118;-63
2022/08/22 10:28:34;;;;;;;23.45;5.50;;;;;;;28.04;39.63;100188.57;1687445;83;21228;-63
2022/08/22 10:31:30;;;;;;;19.87;4.62;;;;;;;28.09;39.99;100191.36;1706365;81;21078;-63
2022/08/22 10:34:11;;;;;;;22.75;5.28;;;;;;;28.22;40.95;100192.11;1701191;81;21086;-63
2022/08/22 10:37:08;;;;;;;29.02;6.25;;;;;;;28.30;39.04;100190.36;1672248;82;21089;-63
2022/08/22 10:39:41;;;;;;;27.85;6.05;;;;;;;28.37;40.00;100194.25;1714103;81;21110;-64
2022/08/22 10:42:34;;;;;;;30.57;6.03;;;;;;;28.46;39.94;100196.83;1702314;81;21856;-63
2022/08/22 10:45:28;;;;;;;30.25;5.62;;;;;;;28.58;40.54;100190.00;1698909;82;21185;-63
2022/08/22 10:48:09;;;;;;;28.70;6.40;;;;;;;28.69;40.34;100189.09;1703929;81;21134;-64
2022/08/22 10:50:46;;;;;;;36.20;7.12;;;;;;;28.77;39.30;100191.39;1700456;81;21192;-62
2022/08/22 10:53:32;;;;;;;44.25;8.05;;;;;;;28.81;37.58;100187.65;1690660;83;21642;-63
2022/08/22 10:56:22;;;;;;;54.88;8.63;;;;;;;28.84;37.13;100189.32;1670047;83;22380;-62
2022/08/22 10:59:15;;;;;;;42.55;8.08;;;;;;;28.87;36.88;100183.95;1652984;84;21407;-63
2022/08/22 11:01:51;;;;;;;37.78;6.92;;;;;;;28.93;36.85;100193.77;1675942;82;21060;-63
2022/08/22 11:04:35;;;;;;;48.98;8.30;;;;;;;29.02;36.35;100195.00;1635798;83;21077;-63
2022/08/22 11:07:25;;;;;;;46.48;9.13;;;;;;;29.11;36.32;100196.73;1633142;83;21059;-63
2022/08/22 11:10:00;;;;;;;43.15;8.33;;;;;;;29.20;36.40;100190.37;1643308;83;21928;-62
2022/08/22 11:12:35;;;;;;;43.73;10.08;;;;;;;29.33;36.19;100191.35;1679109;83;21224;-63
2022/08/22 11:15:10;;;;;;;35.78;7.53;;;;;;;29.33;36.19;100191.35;1679110;83;21034;-62
2022/08/22 11:18:16;;;;;;;41.30;7.60;;;;;;;29.40;36.07;100187.94;1631138;83;21540;-63
2022/08/22 11:21:21;;;;;;;40.38;9.00;;;;;;;29.55;35.83;100190.53;1645925;85;21080;-63
2022/08/22 11:23:59;;;;;;;48.35;10.05;;;;;;;29.67;35.20;100184.97;1696240;82;21145;-63
2022/08/22 11:26:40;;;;;;;55.17;9.58;;;;;;;29.79;35.73;100189.21;1688981;83;21075;-64
2022/08/22 11:29:41;;;;;;;34.00;8.10;;;;;;;29.85;35.59;100184.65;1687578;82;21096;-64
2022/08/22 11:32:34;;;;;;;51.23;8.05;;;;;;;29.91;35.36;100184.98;1694273;83;21553;-63
2022/08/22 11:35:09;;;;;;;47.03;8.43;;;;;;;29.98;35.17;100180.16;1685930;82;21185;-63
2022/08/22 11:38:03;;;;;;;43.70;7.90;;;;;;;30.07;34.52;100176.45;1712508;81;22172;-62
2022/08/22 11:40:47;;;;;;;52.27;9.70;;;;;;;30.12;33.91;100187.34;1695358;82;21554;-63
2022/08/22 11:43:53;;;;;;;36.40;8.73;;;;;;;30.20;34.00;100177.92;1699645;81;21100;-63
2022/08/22 11:46:34;;;;;;;46.95;9.30;;;;;;;30.27;33.87;100183.14;1716176;81;21138;-64
2022/08/22 11:49:24;;;;;;;51.75;9.20;;;;;;;30.37;33.83;100184.61;1701604;82;21519;-64
2022/08/22 11:52:15;;;;;;;45.48;9.05;;;;;;;30.45;34.14;100179.25;1664883;82;21217;-63
2022/08/22 11:55:08;;;;;;;40.50;9.08;;;;;;;30.57;34.58;100178.51;1677630;83;21027;-64
2022/08/22 11:57:39;;;;;;;38.70;9.20;;;;;;;30.70;34.71;100182.68;1679406;82;21657;-63
2022/08/22 12:00:18;;;;;;;44.90;9.23;;;;;;;30.81;34.21;100183.00;1696055;82;21075;-64
2022/08/22 12:02:59;;;;;;;43.85;8.83;;;;;;;30.87;34.39;100181.96;1669706;82;21133;-61
2022/08/22 12:05:43;;;;;;;51.83;7.87;;;;;;;30.96;34.15;100179.59;1693496;82;21826;-63
2022/08/22 12:08:30;;;;;;;53.25;10.13;;;;;;;31.04;33.62;100176.92;1711117;82;21143;-63
2022/08/22 12:11:07;;;;;;;61.55;9.98;;;;;;;31.07;33.63;100177.20;1675632;82;21185;-61
2022/08/22 12:13:53;;;;;;;38.00;7.75;;;;;;;31.10;33.00;100177.20;1699238;82;21157;-64
2022/08/22 12:17:04;;;;;;;53.45;9.98;;;;;;;31.14;33.24;100181.05;1701492;82;21062;-63
2022/08/22 12:19:54;;;;;;;41.85;8.70;;;;;;;31.22;32.47;100175.11;1702318;82;21249;-63
2022/08/22 12:22:52;;;;;;;55.60;9.63;;;;;;;31.35;32.28;100174.33;1714085;81;21082;-63
2022/08/22 12:27:42;;;;;;;46.23;10.90;;;;;;;31.56;32.31;100180.14;1798344;78;22767;-63
2022/08/22 12:30:30;;;;;;;50.70;9.53;;;;;;;31.68;31.67;100177.73;1752011;80;21296;-64
2022/08/22 12:33:14;;;;;;;54.08;10.25;;;;;;;31.77;31.22;100178.83;1777269;78;21138;-62
2022/08/22 12:36:07;;;;;;;58.40;9.85;;;;;;;31.84;31.24;100181.57;1773451;80;20991;-63
2022/08/22 12:38:51;;;;;;;41.45;8.00;;;;;;;31.93;31.09;100181.05;1770602;80;21066;-62
2022/08/22 12:41:23;;;;;;;46.65;8.93;;;;;;;32.01;30.09;100184.04;1765864;78;21058;-63
2022/08/22 12:44:07;;;;;;;51.45;9.75;;;;;;;32.10;29.75;100181.62;1777395;80;21045;-63
2022/08/22 12:46:57;;;;;;;34.65;8.98;;;;;;;32.18;30.19;100172.11;1777755;78;21261;-64
2022/08/22 12:50:03;;;;;;;43.60;8.15;;;;;;;32.31;29.75;100179.73;1762566;78;21066;-63
2022/08/22 12:53:07;;;;;;;43.52;8.40;;;;;;;32.40;29.11;100181.36;1767896;79;21078;-64
2022/08/22 12:56:07;;;;;;;47.58;7.00;;;;;;;32.47;28.62;100181.08;1774549;80;21144;-64